Time;durP1;ratioP1;P1;durP2;ratioP2;P2;SDS_P1;SDS_P2;PMS_P1;PMS_P2;Temp;Humidity;BMP_temperature;BMP_pressure;BME280_temperature;BME280_humidity;BME280_pressure;Samples;Min_cycle;Max_cycle;Signal;HPM_P1;HPM_P2
2024/01/18 00:00:31;;;;;;;15.70;4.20;;;;;;;11.19;67.43;100703.61;109004;1255;72928;-61
2024/01/18 00:03:00;;;;;;;5.90;2.50;;;;;;;11.19;67.36;100696.60;109280;1256;72848;-60
2024/01/18 00:05:28;;;;;;;10.20;3.50;;;;;;;11.20;67.25;100697.28;109166;1255;61742;-63
2024/01/18 00:07:55;;;;;;;9.40;3.30;;;;;;;11.20;67.27;100695.16;109247;1255;59106;-62
2024/01/18 00:10:26;;;;;;;11.40;4.20;;;;;;;11.19;67.01;100691.50;109254;1256;73968;-63
2024/01/18 00:12:55;;;;;;;10.00;3.50;;;;;;;11.19;67.05;100681.84;109180;1254;72699;-63
2024/01/18 00:15:22;;;;;;;10.40;4.10;;;;;;;11.20;67.04;100679.37;109317;1254;72775;-60
2024/01/18 00:17:50;;;;;;;14.30;3.60;;;;;;;11.20;67.09;100678.31;109290;1254;58889;-65
2024/01/18 00:20:18;;;;;;;10.00;3.50;;;;;;;11.20;66.95;100678.66;109091;1256;58704;-63
2024/01/18 00:22:45;;;;;;;12.60;4.30;;;;;;;11.20;66.87;100677.27;108983;1256;72682;-63
2024/01/18 00:25:13;;;;;;;15.10;3.60;;;;;;;11.20;66.88;100673.92;109130;1256;72903;-62
2024/01/18 00:27:41;;;;;;;12.50;3.20;;;;;;;11.19;66.65;100673.77;109201;1256;72716;-63
2024/01/18 00:30:09;;;;;;;8.10;3.20;;;;;;;11.17;66.59;100670.27;109129;1256;60269;-63
2024/01/18 00:32:37;;;;;;;14.70;3.60;;;;;;;11.17;66.68;100674.30;109061;1256;60297;-63
2024/01/18 00:35:05;;;;;;;10.00;3.50;;;;;;;11.18;66.59;100672.19;109184;1256;73935;-61
2024/01/18 00:37:32;;;;;;;8.60;3.50;;;;;;;11.16;66.60;100663.96;109180;1255;73123;-61
2024/01/18 00:40:00;;;;;;;10.90;4.20;;;;;;;11.14;66.52;100661.52;109153;1256;72726;-61
2024/01/18 00:42:28;;;;;;;7.90;3.40;;;;;;;11.13;66.60;100658.39;109076;1256;60188;-61
2024/01/18 00:44:55;;;;;;;16.30;4.80;;;;;;;11.13;66.55;100656.10;109148;1256;58757;-62
2024/01/18 00:47:23;;;;;;;15.50;4.60;;;;;;;11.13;66.54;100656.61;109162;1256;72667;-63
2024/01/18 00:49:50;;;;;;;10.80;4.20;;;;;;;11.12;66.52;100660.33;109043;1255;71616;-65
2024/01/18 00:52:18;;;;;;;6.10;3.20;;;;;;;11.09;66.50;100659.12;109211;1256;71497;-62
2024/01/18 00:54:46;;;;;;;12.20;3.90;;;;;;;11.07;66.52;100656.34;109131;1256;61734;-62
2024/01/18 00:57:14;;;;;;;11.80;3.30;;;;;;;11.05;66.57;100648.65;109159;1256;59223;-67
2024/01/18 00:59:41;;;;;;;9.00;3.20;;;;;;;11.04;66.65;100641.44;109179;1256;72673;-66
2024/01/18 01:02:09;;;;;;;14.50;4.40;;;;;;;11.03;66.64;100636.73;108939;1256;70832;-67
2024/01/18 01:04:37;;;;;;;12.90;4.00;;;;;;;11.03;66.71;100632.86;109180;1256;71474;-66
2024/01/18 01:07:04;;;;;;;9.70;4.10;;;;;;;11.02;66.75;100629.90;109054;1256;60139;-67
2024/01/18 01:09:32;;;;;;;11.00;3.60;;;;;;;11.01;66.78;100617.78;109115;1256;59029;-68
2024/01/18 01:12:00;;;;;;;10.60;3.30;;;;;;;11.01;66.70;100603.75;109069;1256;72339;-66
2024/01/18 01:14:27;;;;;;;12.00;3.10;;;;;;;11.01;66.69;100596.20;109151;1256;72998;-65
2024/01/18 01:16:56;;;;;;;12.30;4.00;;;;;;;11.02;66.74;100593.73;109165;1256;71743;-68
2024/01/18 01:19:23;;;;;;;9.70;3.80;;;;;;;11.02;66.79;100587.94;109167;1256;58764;-66
2024/01/18 01:21:51;;;;;;;11.20;3.70;;;;;;;11.02;66.66;100585.65;109199;1256;58799;-66
2024/01/18 01:24:19;;;;;;;11.60;3.90;;;;;;;11.02;66.66;100584.77;109134;1256;73887;-65
2024/01/18 01:26:46;;;;;;;11.50;4.90;;;;;;;11.02;66.68;100573.73;109273;1254;72616;-64
2024/01/18 01:29:15;;;;;;;10.50;3.60;;;;;;;11.02;66.58;100569.86;109274;1255;72737;-66
2024/01/18 01:31:43;;;;;;;9.50;3.50;;;;;;;11.03;66.56;100562.47;109142;1255;61738;-65
2024/01/18 01:34:11;;;;;;;10.70;3.70;;;;;;;11.04;66.56;100554.73;109329;1255;58811;-66
2024/01/18 01:36:38;;;;;;;11.30;4.70;;;;;;;11.06;66.47;100559.81;109260;1255;72675;-67
2024/01/18 01:39:06;;;;;;;11.20;3.80;;;;;;;11.07;66.56;100559.79;109276;1256;72733;-66
2024/01/18 01:41:34;;;;;;;7.40;3.50;;;;;;;11.07;66.40;100552.77;109243;1256;72734;-65
2024/01/18 01:44:02;;;;;;;11.30;3.20;;;;;;;11.07;66.26;100543.13;109021;1258;58944;-68
2024/01/18 01:46:30;;;;;;;11.80;3.70;;;;;;;11.08;66.44;100546.62;109256;1255;60118;-66
2024/01/18 01:49:02;;;;;;;10.50;3.10;;;;;;;11.09;66.25;100534.15;109275;1255;74114;-67
2024/01/18 01:51:41;;;;;;;12.00;3.70;;;;;;;11.09;66.16;100519.21;109268;1256;71630;-63
2024/01/18 01:54:09;;;;;;;8.40;3.20;;;;;;;11.09;66.19;100506.77;109120;1254;71451;-65
2024/01/18 01:56:37;;;;;;;16.70;4.20;;;;;;;11.09;66.17;100505.88;109106;1255;60076;-64
2024/01/18 01:59:08;;;;;;;12.70;3.50;;;;;;;11.09;66.05;100503.06;109121;1254;60105;-64
2024/01/18 02:01:35;;;;;;;11.10;4.00;;;;;;;11.08;65.96;100495.70;109219;1256;73904;-62
2024/01/18 02:04:05;;;;;;;12.60;3.70;;;;;;;11.08;65.95;100492.72;108980;1254;70815;-63
2024/01/18 02:06:34;;;;;;;14.50;4.10;;;;;;;11.08;65.88;100488.52;109082;1255;72747;-62
2024/01/18 02:09:01;;;;;;;17.80;4.30;;;;;;;11.07;65.85;100477.47;109270;1254;60103;-58
2024/01/18 02:11:29;;;;;;;16.50;4.60;;;;;;;11.06;65.77;100473.45;109083;1256;60081;-61
2024/01/18 02:13:57;;;;;;;16.40;4.00;;;;;;;11.07;65.78;100473.09;109016;1256;72634;-60
2024/01/18 02:16:24;;;;;;;12.80;3.90;;;;;;;11.07;65.52;100469.75;109327;1255;72836;-62
2024/01/18 02:18:52;;;;;;;9.50;3.90;;;;;;;11.07;65.49;100462.90;109169;1256;72765;-60
2024/01/18 02:21:20;;;;;;;13.00;4.10;;;;;;;11.04;65.41;100461.88;109187;1255;60106;-60
2024/01/18 02:23:50;;;;;;;12.80;4.40;;;;;;;11.03;65.45;100462.27;108958;1255;60108;-60
2024/01/18 02:26:18;;;;;;;10.80;3.30;;;;;;;11.02;65.47;100452.09;109252;1256;73863;-60
2024/01/18 02:28:56;;;;;;;14.50;4.60;;;;;;;11.02;65.44;100445.42;109276;1255;72898;-59
2024/01/18 02:31:24;;;;;;;13.10;4.70;;;;;;;11.03;65.32;100435.40;109154;1255;72749;-59
2024/01/18 02:33:51;;;;;;;11.90;4.10;;;;;;;11.03;65.26;100428.20;109244;1259;60137;-60
2024/01/18 02:36:20;;;;;;;12.90;4.20;;;;;;;11.04;65.22;100426.06;109110;1256;58825;-58
2024/01/18 02:38:47;;;;;;;11.40;3.50;;;;;;;11.04;65.19;100424.66;109206;1255;73944;-61
2024/01/18 02:41:15;;;;;;;12.80;4.50;;;;;;;11.04;65.21;100425.36;108898;1256;72905;-59
2024/01/18 02:43:43;;;;;;;8.70;3.30;;;;;;;11.04;65.17;100417.83;109002;1256;72374;-59
2024/01/18 02:46:15;;;;;;;15.50;4.10;;;;;;;11.04;65.17;100418.54;108969;1256;60485;-60
2024/01/18 02:48:43;;;;;;;13.30;4.10;;;;;;;11.04;65.25;100408.34;109240;1255;58805;-59
2024/01/18 02:51:10;;;;;;;12.80;3.80;;;;;;;11.04;65.20;100402.56;109270;1257;73956;-62
2024/01/18 02:53:39;;;;;;;10.90;3.50;;;;;;;11.04;65.21;100398.70;109199;1256;72873;-64
2024/01/18 02:56:06;;;;;;;12.30;3.50;;;;;;;11.04;65.26;100399.40;109169;1259;72715;-64
2024/01/18 02:58:34;;;;;;;13.30;3.50;;;;;;;11.04;65.22;100407.81;109178;1256;58859;-65
2024/01/18 03:01:02;;;;;;;12.90;3.50;;;;;;;11.05;65.25;100411.33;109188;1254;58746;-64
2024/01/18 03:03:29;;;;;;;15.40;3.60;;;;;;;11.06;65.27;100420.61;108950;1255;73936;-64
2024/01/18 03:06:00;;;;;;;11.70;3.20;;;;;;;11.06;65.28;100419.73;109198;1256;73326;-63
2024/01/18 03:08:28;;;;;;;11.60;3.30;;;;;;;11.06;65.27;100413.79;108920;1256;72784;-62
2024/01/18 03:10:55;;;;;;;13.10;4.40;;;;;;;11.05;65.43;100410.28;109146;1256;59035;-64
2024/01/18 03:13:23;;;;;;;11.80;3.80;;;;;;;11.04;65.58;100405.38;109038;1256;58798;-64
2024/01/18 03:15:50;;;;;;;13.30;4.20;;;;;;;11.03;65.35;100403.45;109192;1256;72179;-64
2024/01/18 03:18:18;;;;;;;10.80;3.80;;;;;;;11.03;65.54;100402.23;109198;1254;71352;-65
2024/01/18 03:20:46;;;;;;;13.50;4.00;;;;;;;11.02;65.64;100399.26;108970;1256;72547;-66
2024/01/18 03:23:14;;;;;;;15.10;4.30;;;;;;;11.01;65.72;100391.73;109183;1255;59164;-66
2024/01/18 03:25:41;;;;;;;13.30;3.70;;;;;;;11.01;65.73;100388.39;109073;1255;60258;-66
2024/01/18 03:28:09;;;;;;;13.10;4.40;;;;;;;11.01;65.67;100386.11;109183;1255;73651;-62
2024/01/18 03:30:37;;;;;;;13.60;3.90;;;;;;;11.00;65.91;100382.61;109180;1256;71580;-63
2024/01/18 03:33:05;;;;;;;13.60;3.80;;;;;;;11.00;65.90;100381.92;109029;1255;72808;-62
2024/01/18 03:35:33;;;;;;;10.50;3.50;;;;;;;11.00;65.96;100388.41;109023;1255;59863;-64
2024/01/18 03:38:00;;;;;;;11.10;4.00;;;;;;;11.01;66.03;100387.52;109220;1255;60103;-60
2024/01/18 03:40:28;;;;;;;16.10;4.50;;;;;;;11.03;66.02;100382.05;109152;1257;73959;-61
2024/01/18 03:42:55;;;;;;;16.30;4.10;;;;;;;11.03;66.00;100380.99;109178;1256;71966;-62
2024/01/18 03:45:23;;;;;;;12.50;4.70;;;;;;;11.04;66.03;100373.77;108984;1255;72802;-65
2024/01/18 03:47:51;;;;;;;12.90;4.10;;;;;;;11.05;65.97;100365.16;109164;1256;58865;-62
2024/01/18 03:50:19;;;;;;;12.00;4.00;;;;;;;11.07;66.00;100362.33;109195;1256;58714;-63
2024/01/18 03:52:46;;;;;;;15.10;4.90;;;;;;;11.08;65.89;100358.61;109175;1256;73919;-63
2024/01/18 03:55:16;;;;;;;10.70;3.70;;;;;;;11.09;65.89;100357.02;109152;1256;72880;-63
2024/01/18 03:57:44;;;;;;;14.50;4.30;;;;;;;11.12;65.85;100360.50;109160;1255;71475;-63
2024/01/18 04:00:15;;;;;;;15.10;4.60;;;;;;;11.12;65.72;100358.38;109150;1255;60182;-68
2024/01/18 04:02:44;;;;;;;13.80;4.30;;;;;;;11.12;65.70;100359.61;109098;1254;60136;-68
2024/01/18 04:05:11;;;;;;;14.70;4.10;;;;;;;11.12;65.50;100353.45;109177;1256;73662;-66
2024/01/18 04:07:39;;;;;;;11.70;4.50;;;;;;;11.12;65.63;100348.02;109102;1256;72888;-66
2024/01/18 04:10:10;;;;;;;10.70;4.10;;;;;;;11.13;65.56;100351.34;109221;1254;72603;-64
2024/01/18 04:12:37;;;;;;;12.20;4.20;;;;;;;11.15;65.54;100357.45;109049;1256;60795;-65
2024/01/18 04:15:06;;;;;;;15.80;4.50;;;;;;;11.16;65.54;100359.02;109174;1255;58975;-63
2024/01/18 04:17:34;;;;;;;11.70;4.60;;;;;;;11.15;65.55;100351.84;109235;1257;72307;-62
2024/01/18 04:20:06;;;;;;;11.80;3.80;;;;;;;11.16;65.57;100355.33;109192;1256;72873;-62
2024/01/18 04:22:33;;;;;;;;;;;;;;;11.15;65.71;100355.15;109146;1255;71437;-63
2024/01/18 04:25:01;;;;;;;13.00;3.80;;;;;;;11.15;65.65;100352.17;109080;1256;60157;-61
2024/01/18 04:27:28;;;;;;;13.60;4.00;;;;;;;11.15;65.66;100351.48;109177;1255;60158;-63
2024/01/18 04:29:56;;;;;;;9.90;3.80;;;;;;;11.15;65.61;100353.41;109246;1255;73975;-61
2024/01/18 04:32:24;;;;;;;11.90;3.40;;;;;;;11.16;65.75;100344.45;109354;1256;71329;-60
2024/01/18 04:34:51;;;;;;;15.40;4.10;;;;;;;11.16;65.65;100341.10;108882;1256;72745;-60
2024/01/18 04:37:19;;;;;;;13.00;4.30;;;;;;;11.16;65.90;100329.67;108972;1256;327371;-64
2024/01/18 04:39:47;;;;;;;11.70;4.40;;;;;;;11.16;65.79;100324.08;109046;1255;58252;-63
2024/01/18 04:42:16;;;;;;;13.20;3.90;;;;;;;11.17;65.78;100315.29;109214;1255;73946;-60
2024/01/18 04:44:45;;;;;;;17.50;4.40;;;;;;;11.16;65.84;100313.90;109268;1255;72759;-63
2024/01/18 04:47:12;;;;;;;11.50;4.00;;;;;;;11.15;65.74;100307.95;109159;1255;72488;-61
2024/01/18 04:49:40;;;;;;;17.60;4.70;;;;;;;11.15;65.71;100304.42;109191;1256;60551;-63
2024/01/18 04:52:08;;;;;;;10.80;4.40;;;;;;;11.15;65.62;100308.46;109131;1256;58982;-61
2024/01/18 04:54:35;;;;;;;12.40;4.20;;;;;;;11.15;65.73;100299.87;109216;1256;74350;-60
2024/01/18 04:57:05;;;;;;;10.90;3.70;;;;;;;11.14;65.80;100294.27;109176;1256;72852;-60
2024/01/18 04:59:32;;;;;;;12.90;3.80;;;;;;;11.15;65.72;100287.41;108986;1256;71497;-61
2024/01/18 05:02:00;;;;;;;14.00;4.10;;;;;;;11.14;65.73;100280.92;109022;1255;60167;-60
2024/01/18 05:04:29;;;;;;;9.00;3.70;;;;;;;11.13;65.68;100279.38;108988;1256;60114;-60
2024/01/18 05:06:56;;;;;;;12.70;3.90;;;;;;;11.14;65.94;100274.97;109194;1255;73892;-60
2024/01/18 05:09:24;;;;;;;18.00;5.20;;;;;;;11.14;65.81;100278.29;109167;1255;72854;-60
2024/01/18 05:11:52;;;;;;;15.00;4.90;;;;;;;11.14;65.79;100273.91;109197;1256;72800;-61
2024/01/18 05:14:21;;;;;;;10.60;4.10;;;;;;;11.15;65.72;100269.69;109210;1255;59232;-59
2024/01/18 05:16:51;;;;;;;11.10;4.00;;;;;;;11.15;65.72;100263.88;109251;1255;59009;-59
2024/01/18 05:19:19;;;;;;;15.00;4.50;;;;;;;11.15;65.81;100260.73;109298;1256;72202;-59
2024/01/18 05:21:47;;;;;;;14.10;4.10;;;;;;;11.13;65.89;100260.40;109159;1256;71606;-58
2024/01/18 05:24:15;;;;;;;13.90;4.60;;;;;;;11.13;65.83;100260.08;108977;1257;72746;-58
2024/01/18 05:26:42;;;;;;;16.80;4.50;;;;;;;11.13;65.87;100258.66;109216;1254;58875;-59
2024/01/18 05:29:10;;;;;;;15.40;4.20;;;;;;;11.13;66.00;100262.35;109219;1255;60064;-60
2024/01/18 05:31:38;;;;;;;10.70;4.10;;;;;;;11.12;65.96;100254.46;109233;1255;73969;-58
2024/01/18 05:34:05;;;;;;;13.40;4.50;;;;;;;11.12;65.94;100254.12;109300;1255;72351;-58
2024/01/18 05:36:34;;;;;;;12.80;4.50;;;;;;;11.11;66.07;100248.33;109122;1256;72737;-61
2024/01/18 05:39:03;;;;;;;13.20;4.20;;;;;;;11.12;66.20;100246.56;109230;1255;60765;-58
2024/01/18 05:41:30;;;;;;;14.70;4.30;;;;;;;11.13;66.16;100242.51;109213;1257;60118;-57
2024/01/18 05:43:58;;;;;;;15.80;4.90;;;;;;;11.14;66.21;100240.04;109208;1254;73955;-57
2024/01/18 05:46:26;;;;;;;15.70;5.40;;;;;;;11.13;66.19;100236.35;109073;1256;73115;-58
2024/01/18 05:48:53;;;;;;;16.40;5.00;;;;;;;11.13;66.36;100238.11;109199;1255;71786;-59
2024/01/18 05:51:21;;;;;;;11.90;5.70;;;;;;;11.13;66.26;100243.56;109256;1254;60145;-58
2024/01/18 05:53:49;;;;;;;17.50;4.50;;;;;;;11.12;66.28;100241.64;109237;1256;59715;-58
2024/01/18 05:56:16;;;;;;;12.00;3.80;;;;;;;11.11;66.43;100241.84;108993;1256;74509;-60
2024/01/18 05:58:44;;;;;;;11.90;4.00;;;;;;;11.12;66.43;100236.21;109211;1255;72369;-59
2024/01/18 06:01:13;;;;;;;14.80;4.90;;;;;;;11.12;66.41;100235.16;109202;1255;70302;-58
2024/01/18 06:03:41;;;;;;;12.80;4.30;;;;;;;11.13;66.50;100232.67;109140;1256;60894;-60
2024/01/18 06:06:10;;;;;;;14.70;4.90;;;;;;;11.14;66.62;100235.29;109192;1255;58871;-59
2024/01/18 06:08:37;;;;;;;14.70;4.90;;;;;;;11.14;66.71;100234.58;109256;1253;73959;-58
2024/01/18 06:11:05;;;;;;;11.80;4.50;;;;;;;11.14;66.64;100233.17;109241;1255;71590;-58
2024/01/18 06:13:33;;;;;;;14.30;4.60;;;;;;;11.17;66.84;100230.16;109043;1253;72713;-58
2024/01/18 06:16:00;;;;;;;12.80;4.50;;;;;;;11.17;66.79;100229.61;109300;1254;60361;-58
2024/01/18 06:18:28;;;;;;;13.90;4.80;;;;;;;11.18;66.78;100231.35;109158;1253;60161;-57
2024/01/18 06:20:56;;;;;;;16.10;4.60;;;;;;;11.20;66.86;100227.98;109212;1253;72628;-57
2024/01/18 06:23:24;;;;;;;15.00;5.50;;;;;;;11.21;66.82;100218.99;109204;1256;72855;-56
2024/01/18 06:25:52;;;;;;;14.20;5.60;;;;;;;11.22;66.68;100211.62;109163;1256;72867;-59
2024/01/18 06:28:19;;;;;;;15.20;4.60;;;;;;;11.22;66.78;100221.79;109030;1256;61734;-58
2024/01/18 06:30:47;;;;;;;12.70;4.50;;;;;;;11.23;66.77;100217.21;109236;1256;60288;-58
2024/01/18 06:33:15;;;;;;;15.20;5.40;;;;;;;11.24;66.95;100215.62;109190;1255;73983;-57
2024/01/18 06:35:43;;;;;;;10.10;4.80;;;;;;;11.24;66.82;100213.50;109175;1256;72835;-58
2024/01/18 06:38:11;;;;;;;14.30;4.70;;;;;;;11.23;66.82;100213.16;109174;1256;72728;-59
2024/01/18 06:40:40;;;;;;;16.70;5.70;;;;;;;11.25;68.27;100217.70;108972;1256;61727;-60
2024/01/18 06:43:10;;;;;;;26.70;6.30;;;;;;;11.30;69.17;100213.91;109198;1256;58392;-59
2024/01/18 06:45:38;;;;;;;20.20;6.00;;;;;;;11.33;69.51;100207.55;109182;1256;73895;-61
2024/01/18 06:48:06;;;;;;;15.80;5.60;;;;;;;11.34;69.49;100198.40;109263;1255;72714;-61
2024/01/18 06:50:35;;;;;;;16.40;5.40;;;;;;;11.33;69.25;100198.59;109284;1255;72864;-65
2024/01/18 06:53:03;;;;;;;14.10;5.20;;;;;;;11.32;69.22;100196.14;109205;1255;59210;-64
2024/01/18 06:55:31;;;;;;;12.10;4.80;;;;;;;11.31;69.19;100193.71;109209;1256;59455;-65
2024/01/18 06:58:02;;;;;;;14.90;5.90;;;;;;;11.32;69.08;100190.88;109259;1254;73694;-58
2024/01/18 07:00:30;;;;;;;13.70;5.40;;;;;;;11.32;68.68;100193.52;109228;1254;73279;-60
2024/01/18 07:02:59;;;;;;;19.00;6.10;;;;;;;11.33;68.64;100188.59;109204;1254;72957;-59
2024/01/18 07:05:27;;;;;;;18.60;5.80;;;;;;;11.33;68.75;100183.84;109057;1253;58609;-59
2024/01/18 07:07:55;;;;;;;13.80;5.50;;;;;;;11.34;68.54;100179.59;109198;1254;60389;-59
2024/01/18 07:10:22;;;;;;;14.40;5.30;;;;;;;11.37;68.49;100177.78;109201;1256;73675;-59
2024/01/18 07:12:50;;;;;;;17.10;5.80;;;;;;;11.41;68.32;100169.08;109190;1256;72851;-59
2024/01/18 07:15:19;;;;;;;14.30;5.70;;;;;;;11.45;68.12;100170.08;109075;1254;72872;-58
2024/01/18 07:17:47;;;;;;;15.00;5.10;;;;;;;11.49;68.01;100169.83;109219;1254;59602;-60
2024/01/18 07:20:15;;;;;;;15.60;5.30;;;;;;;11.53;67.77;100166.73;109258;1254;59013;-54
2024/01/18 07:22:42;;;;;;;13.40;5.60;;;;;;;11.57;67.64;100165.24;109182;1259;73960;-53
2024/01/18 07:25:12;;;;;;;12.60;5.80;;;;;;;11.59;67.43;100165.02;109153;1254;71874;-53
2024/01/18 07:27:41;;;;;;;24.10;6.40;;;;;;;11.61;67.32;100163.05;109272;1254;72720;-53
2024/01/18 07:30:09;;;;;;;15.20;5.70;;;;;;;11.65;67.35;100162.27;109077;1253;60164;-54
2024/01/18 07:32:37;;;;;;;16.50;5.60;;;;;;;11.65;67.15;100156.11;109210;1254;58090;-54
2024/01/18 07:35:04;;;;;;;17.40;6.00;;;;;;;11.65;67.00;100153.82;109223;1253;73916;-55
2024/01/18 07:37:32;;;;;;;16.70;5.90;;;;;;;11.66;66.87;100152.59;109207;1256;72922;-54
2024/01/18 07:40:01;;;;;;;14.60;5.90;;;;;;;11.66;66.79;100143.98;109150;1254;72860;-54
2024/01/18 07:42:28;;;;;;;16.30;6.00;;;;;;;11.63;66.86;100140.52;109164;1257;60442;-54
2024/01/18 07:44:56;;;;;;;16.90;6.00;;;;;;;11.62;66.79;100138.09;109221;1254;60260;-54
2024/01/18 07:47:25;;;;;;;15.60;6.20;;;;;;;11.61;66.89;100137.75;109268;1254;73675;-54
2024/01/18 07:49:53;;;;;;;15.60;5.60;;;;;;;11.61;66.96;100130.55;109077;1256;72882;-56
2024/01/18 07:52:20;;;;;;;20.10;7.40;;;;;;;11.60;66.84;100130.91;109242;1254;70957;-54
2024/01/18 07:54:49;;;;;;;18.00;6.40;;;;;;;11.60;66.96;100130.04;109081;1257;60147;-54
2024/01/18 07:57:17;;;;;;;14.00;6.50;;;;;;;11.61;67.06;100129.33;109097;1254;60090;-54
2024/01/18 07:59:45;;;;;;;16.40;6.20;;;;;;;11.61;67.03;100127.91;109243;1254;73944;-53
2024/01/18 08:02:13;;;;;;;17.40;7.00;;;;;;;11.62;67.14;100121.04;109182;1257;71596;-54
2024/01/18 08:04:40;;;;;;;18.70;7.20;;;;;;;11.64;67.18;100121.16;109246;1254;72780;-54
2024/01/18 08:07:08;;;;;;;18.50;7.80;;;;;;;11.67;67.20;100117.95;109197;1254;60138;-54
2024/01/18 08:09:37;;;;;;;17.00;8.10;;;;;;;11.70;67.10;100113.67;109248;1254;58402;-54
2024/01/18 08:12:06;;;;;;;17.30;7.30;;;;;;;11.72;67.03;100115.73;109262;1257;72561;-54
2024/01/18 08:14:39;;;;;;;20.80;7.50;;;;;;;11.74;67.00;100119.55;109223;1256;72859;-54
2024/01/18 08:17:08;;;;;;;17.80;7.60;;;;;;;11.75;66.92;100121.80;109296;1255;71749;-54
2024/01/18 08:19:36;;;;;;;17.90;7.80;;;;;;;11.75;66.75;100122.52;109080;1259;59745;-54
2024/01/18 08:22:04;;;;;;;20.40;7.90;;;;;;;11.74;66.70;100121.13;109198;1256;59052;-62
2024/01/18 08:24:32;;;;;;;15.20;7.50;;;;;;;11.73;66.71;100116.92;109096;1256;72658;-60
2024/01/18 08:27:00;;;;;;;17.80;7.80;;;;;;;11.75;66.54;100113.91;109160;1256;72031;-64
2024/01/18 08:29:28;;;;;;;19.60;7.40;;;;;;;11.77;66.69;100114.73;109091;1257;71920;-60
2024/01/18 08:31:56;;;;;;;19.10;8.70;;;;;;;11.79;66.67;100110.98;109132;1254;62752;-60
2024/01/18 08:34:23;;;;;;;19.20;8.70;;;;;;;11.81;66.60;100105.50;109126;1254;59293;-60
2024/01/18 08:36:51;;;;;;;14.30;7.60;;;;;;;11.83;66.86;100112.67;109135;1260;72761;-60
2024/01/18 08:39:20;;;;;;;23.40;8.30;;;;;;;11.85;66.66;100113.52;109126;1256;72892;-62
2024/01/18 08:41:50;;;;;;;19.80;8.50;;;;;;;11.85;66.63;100115.08;109014;1256;72517;-59
2024/01/18 08:44:19;;;;;;;19.90;8.60;;;;;;;11.86;66.60;100114.02;109160;1257;58876;-61
2024/01/18 08:46:47;;;;;;;20.90;9.00;;;;;;;11.85;66.72;100111.40;108962;1257;58142;-61
2024/01/18 08:49:14;;;;;;;20.10;8.20;;;;;;;11.85;66.54;100105.95;108948;1257;72706;-59
2024/01/18 08:51:43;;;;;;;20.70;8.80;;;;;;;11.85;66.63;100101.55;108833;1256;73008;-61
2024/01/18 08:54:11;;;;;;;21.40;9.50;;;;;;;11.84;66.56;100096.13;109132;1257;72756;-59
2024/01/18 08:56:38;;;;;;;17.80;9.10;;;;;;;11.84;66.59;100096.65;109170;1256;59869;-64
2024/01/18 08:59:06;;;;;;;21.50;9.20;;;;;;;11.83;66.67;100093.33;109166;1256;58547;-61
2024/01/18 09:01:33;;;;;;;17.00;9.80;;;;;;;11.82;66.63;100092.64;108996;1256;74491;-62
2024/01/18 09:04:02;;;;;;;22.00;10.30;;;;;;;11.82;66.75;100084.57;109121;1258;72191;-61
2024/01/18 09:06:30;;;;;;;24.20;9.80;;;;;;;11.82;66.78;100077.90;109144;1256;73974;-61
2024/01/18 09:08:58;;;;;;;20.20;10.40;;;;;;;11.83;66.99;100074.54;109147;1257;61771;-61
2024/01/18 09:11:25;;;;;;;22.20;9.60;;;;;;;11.82;66.92;100066.64;109160;1255;60775;-60
2024/01/18 09:13:53;;;;;;;22.20;10.00;;;;;;;11.83;66.96;100059.95;109167;1255;74060;-61
2024/01/18 09:16:21;;;;;;;23.00;11.70;;;;;;;11.82;66.88;100056.63;109150;1255;73043;-62
2024/01/18 09:18:50;;;;;;;23.90;12.20;;;;;;;11.82;66.95;100051.89;109072;1257;72894;-61
2024/01/18 09:21:44;;;;;;;23.70;10.80;;;;;;;11.82;66.92;100050.65;108939;1256;60451;-61
2024/01/18 09:24:13;;;;;;;26.70;11.10;;;;;;;11.84;66.92;100043.75;109071;1257;59920;-59
2024/01/18 09:26:41;;;;;;;23.90;12.30;;;;;;;11.85;67.02;100040.73;109087;1256;73782;-61
2024/01/18 09:29:09;;;;;;;18.20;11.30;;;;;;;11.86;66.96;100033.52;108940;1255;72714;-60
2024/01/18 09:31:36;;;;;;;22.20;11.10;;;;;;;11.87;66.90;100028.59;109013;1257;71224;-62
2024/01/18 09:34:10;;;;;;;19.60;11.90;;;;;;;11.86;66.84;100025.23;108998;1257;59256;-60
2024/01/18 09:36:38;;;;;;;23.10;12.30;;;;;;;11.86;66.77;100019.98;109164;1256;60627;-61
2024/01/18 09:39:15;;;;;;;24.10;12.20;;;;;;;11.86;66.85;100011.36;109144;1256;74597;-61
2024/01/18 09:41:51;;;;;;;26.40;12.10;;;;;;;11.87;66.93;100004.14;109106;1255;72917;-62
2024/01/18 09:44:26;;;;;;;27.00;12.60;;;;;;;11.89;66.88;100002.69;109136;1256;73178;-61
2024/01/18 09:46:54;;;;;;;24.40;12.50;;;;;;;11.92;66.74;99999.79;109193;1254;59898;-66
2024/01/18 09:49:21;;;;;;;26.70;12.40;;;;;;;11.94;66.55;99991.69;109169;1256;60152;-65
2024/01/18 09:51:50;;;;;;;28.40;13.70;;;;;;;11.95;66.55;99984.45;108998;1257;73748;-65
2024/01/18 09:54:18;;;;;;;25.10;13.30;;;;;;;11.96;66.68;99984.60;109145;1256;72935;-67
2024/01/18 09:56:46;;;;;;;27.90;13.70;;;;;;;11.97;66.53;99977.38;108914;1257;70652;-66
2024/01/18 09:59:16;;;;;;;25.60;12.60;;;;;;;11.97;66.36;99969.29;108856;1257;60265;-67
2024/01/18 10:01:47;;;;;;;22.40;12.80;;;;;;;11.99;66.44;99969.78;108839;1257;59378;-67
2024/01/18 10:04:17;;;;;;;28.90;14.30;;;;;;;11.99;66.31;99962.40;108864;1256;74154;-64
2024/01/18 10:06:45;;;;;;;26.60;13.70;;;;;;;12.00;66.33;99966.58;108894;1257;71765;-68
2024/01/18 10:09:16;;;;;;;29.30;13.80;;;;;;;12.01;66.26;99963.04;108928;1257;72258;-66
2024/01/18 10:11:47;;;;;;;28.60;13.60;;;;;;;12.01;66.14;99964.80;108864;1263;59989;-68
2024/01/18 10:14:15;;;;;;;28.50;14.00;;;;;;;12.00;66.10;99954.64;108839;1259;59094;-67
2024/01/18 10:16:43;;;;;;;27.10;14.60;;;;;;;12.00;66.06;99950.77;108873;1259;73724;-66
2024/01/18 10:19:14;;;;;;;27.00;13.80;;;;;;;12.00;66.21;99948.30;108904;1257;72862;-67
2024/01/18 10:21:44;;;;;;;24.90;13.60;;;;;;;12.01;66.26;99950.39;108902;1257;71220;-66
2024/01/18 10:24:13;;;;;;;26.90;14.50;;;;;;;12.01;66.12;99943.18;108909;1257;58751;-67
2024/01/18 10:26:41;;;;;;;24.70;13.80;;;;;;;12.00;66.16;99937.05;108881;1257;60257;-66
2024/01/18 10:29:09;;;;;;;23.20;13.60;;;;;;;11.99;66.05;99935.15;108915;1257;72342;-67
2024/01/18 10:31:41;;;;;;;26.10;13.60;;;;;;;11.96;66.06;99930.30;109043;1256;71722;-67
2024/01/18 10:34:09;;;;;;;27.70;14.10;;;;;;;11.94;66.15;99925.77;109001;1256;71915;-65
2024/01/18 10:36:38;;;;;;;27.40;14.30;;;;;;;11.92;66.18;99922.81;109079;1256;59421;-66
2024/01/18 10:39:19;;;;;;;29.80;15.30;;;;;;;11.90;66.09;99914.95;108993;1256;59233;-67
2024/01/18 10:41:47;;;;;;;26.40;14.20;;;;;;;11.88;66.00;99906.95;109085;1256;73199;-65
2024/01/18 10:44:15;;;;;;;28.60;14.20;;;;;;;11.87;66.13;99897.11;109095;1257;73121;-66
2024/01/18 10:46:43;;;;;;;24.60;12.90;;;;;;;11.88;66.12;99887.80;108889;1256;72597;-61
2024/01/18 10:49:11;;;;;;;28.70;16.20;;;;;;;11.89;66.13;99884.59;108914;1254;60239;-61
2024/01/18 10:51:40;;;;;;;29.90;15.30;;;;;;;11.89;66.09;99876.14;108982;1255;59831;-62
2024/01/18 10:54:09;;;;;;;25.90;14.30;;;;;;;11.90;66.18;99873.30;109149;1257;74275;-63
2024/01/18 10:56:57;;;;;;;34.10;15.60;;;;;;;11.91;66.09;99868.36;109142;1256;73029;-69
2024/01/18 10:59:24;;;;;;;30.40;14.40;;;;;;;11.92;66.20;99867.81;108909;1255;71182;-65
2024/01/18 11:01:59;;;;;;;27.70;15.00;;;;;;;11.92;65.98;99866.23;108951;1254;58671;-68
2024/01/18 11:04:27;;;;;;;;;;;;;;;11.91;65.98;99865.91;109191;1254;60094;-67
2024/01/18 11:06:57;;;;;;;28.30;16.40;;;;;;;11.88;66.01;99859.66;108988;1257;72284;-65
2024/01/18 11:09:26;;;;;;;29.20;15.30;;;;;;;11.84;66.03;99863.11;109095;1257;74341;-67
2024/01/18 11:11:54;;;;;;;30.40;16.10;;;;;;;11.81;66.11;99863.73;109142;1256;71154;-66
2024/01/18 11:14:24;;;;;;;31.90;16.00;;;;;;;11.80;66.43;99855.64;108964;1256;59884;-65